Time;durP1;ratioP1;P1;durP2;ratioP2;P2;SDS_P1;SDS_P2;PMS_P1;PMS_P2;Temp;Humidity;BMP_temperature;BMP_pressure;BME280_temperature;BME280_humidity;BME280_pressure;Samples;Min_cycle;Max_cycle;Signal;HPM_P1;HPM_P2
2023/07/03 00:00:20;;;;;;;17.37;13.73;;;14.70;73.10;;;;;;5014671;28;20256;-89
2023/07/03 00:02:49;;;;;;;16.40;14.13;;;14.60;73.60;;;;;;5014320;28;20181;-89
2023/07/03 00:05:16;;;;;;;24.43;14.60;;;14.60;73.90;;;;;;4996811;28;20177;-88
2023/07/03 00:07:41;;;;;;;19.57;14.57;;;14.60;73.30;;;;;;4996850;28;20182;-88
2023/07/03 00:10:08;;;;;;;17.67;13.43;;;14.70;73.60;;;;;;4996536;28;20743;-88
2023/07/03 00:12:34;;;;;;;15.50;13.30;;;14.70;73.80;;;;;;4996743;28;20185;-88
2023/07/03 00:15:00;;;;;;;16.27;12.97;;;14.70;74.20;;;;;;5017658;28;20259;-88
2023/07/03 00:17:25;;;;;;;17.97;13.67;;;14.70;74.10;;;;;;5000404;28;20347;-88
2023/07/03 00:19:51;;;;;;;19.87;13.57;;;14.70;73.50;;;;;;5017824;28;20169;-88
2023/07/03 00:22:16;;;;;;;15.70;14.10;;;14.80;73.00;;;;;;5001390;28;20234;-88
2023/07/03 00:24:42;;;;;;;18.57;14.07;;;14.70;73.10;;;;;;5017691;28;20192;-88
2023/07/03 00:27:07;;;;;;;17.33;13.43;;;14.70;73.30;;;;;;5000364;28;20571;-87
2023/07/03 00:29:33;;;;;;;20.10;13.60;;;14.80;72.70;;;;;;5018029;28;20181;-89
2023/07/03 00:32:00;;;;;;;15.00;13.33;;;14.80;73.20;;;;;;5000493;28;20185;-89
2023/07/03 00:34:27;;;;;;;17.13;14.20;;;14.80;73.30;;;;;;5018362;28;20197;-88
2023/07/03 00:36:53;;;;;;;18.73;13.60;;;14.80;73.40;;;;;;5000442;28;20197;-88
2023/07/03 00:39:19;;;;;;;21.70;14.30;;;14.70;73.80;;;;;;5000745;28;20273;-87
2023/07/03 00:41:44;;;;;;;15.00;13.33;;;14.70;74.10;;;;;;5018521;28;20205;-87
2023/07/03 00:44:12;;;;;;;19.33;13.83;;;14.60;74.40;;;;;;5018106;28;20197;-89
2023/07/03 00:46:43;;;;;;;18.20;13.27;;;14.60;74.20;;;;;;5000747;28;20216;-88
2023/07/03 00:49:09;;;;;;;25.07;13.63;;;14.70;73.80;;;;;;5017280;28;20177;-89
2023/07/03 00:51:41;;;;;;;17.33;13.27;;;14.70;74.30;;;;;;4999766;28;20188;-86
2023/07/03 00:54:07;;;;;;;13.90;11.93;;;14.70;74.30;;;;;;4999035;28;20213;-87
2023/07/03 00:56:33;;;;;;;19.37;13.17;;;14.60;74.70;;;;;;4998998;28;20752;-87
2023/07/03 00:58:58;;;;;;;25.00;12.57;;;14.50;75.00;;;;;;5016456;28;20657;-86
2023/07/03 01:01:47;;;;;;;19.70;13.10;;;14.50;75.20;;;;;;5016444;28;20181;-86
2023/07/03 01:04:18;;;;;;;19.40;13.13;;;14.50;75.20;;;;;;4998902;28;20272;-87
2023/07/03 01:06:50;;;;;;;19.40;12.87;;;14.60;75.00;;;;;;4999210;28;20188;-87
2023/07/03 01:09:19;;;;;;;17.40;12.40;;;14.50;75.40;;;;;;5016599;28;20162;-87
2023/07/03 01:11:47;;;;;;;21.40;13.83;;;14.50;75.60;;;;;;4998876;28;20795;-86
2023/07/03 01:14:17;;;;;;;19.07;12.77;;;14.60;75.10;;;;;;4998438;28;20201;-86
2023/07/03 01:16:45;;;;;;;15.53;12.17;;;14.70;74.90;;;;;;4998500;28;20197;-86
2023/07/03 01:19:14;;;;;;;19.50;12.70;;;14.70;74.20;;;;;;4998540;28;20216;-86
2023/07/03 01:21:46;;;;;;;21.47;12.50;;;14.80;74.40;;;;;;5016074;28;20248;-87
2023/07/03 01:24:15;;;;;;;21.03;13.30;;;14.80;74.30;;;;;;4998422;28;20201;-86
2023/07/03 01:26:43;;;;;;;23.67;14.10;;;14.80;74.60;;;;;;4981706;28;20265;-87
2023/07/03 01:29:10;;;;;;;21.17;13.27;;;14.70;75.30;;;;;;4998602;28;20189;-86
2023/07/03 01:31:37;;;;;;;13.47;11.37;;;14.70;74.90;;;;;;5015802;28;20186;-86
2023/07/03 01:34:04;;;;;;;22.20;13.27;;;14.70;74.50;;;;;;4998293;28;20292;-86
2023/07/03 01:36:31;;;;;;;19.20;12.83;;;14.70;74.60;;;;;;5015662;28;20197;-86
2023/07/03 01:38:58;;;;;;;20.47;12.37;;;14.70;74.80;;;;;;5015769;28;20180;-86
2023/07/03 01:41:24;;;;;;;18.07;13.10;;;14.60;75.00;;;;;;5015622;28;20169;-86
2023/07/03 01:43:51;;;;;;;15.63;11.80;;;14.60;74.80;;;;;;4997995;28;20664;-87
2023/07/03 01:46:16;;;;;;;22.57;12.27;;;14.50;75.40;;;;;;5016086;28;20196;-86
2023/07/03 01:48:42;;;;;;;17.23;12.00;;;14.60;75.10;;;;;;4998485;28;20575;-87
2023/07/03 01:51:11;;;;;;;23.90;14.10;;;14.50;75.90;;;;;;5016360;28;20667;-88
2023/07/03 01:53:54;;;;;;;18.80;12.07;;;14.40;76.10;;;;;;5015897;28;20212;-88
2023/07/03 01:56:25;;;;;;;20.17;11.63;;;14.30;76.00;;;;;;4998821;28;20193;-88
2023/07/03 01:58:56;;;;;;;13.97;11.13;;;14.50;75.50;;;;;;4998615;28;20174;-88
2023/07/03 02:01:29;;;;;;;16.57;11.83;;;14.60;75.50;;;;;;4998475;28;20170;-88
2023/07/03 02:04:01;;;;;;;19.23;11.90;;;14.60;75.60;;;;;;5016006;28;20233;-88
2023/07/03 02:06:36;;;;;;;16.83;11.50;;;14.70;75.70;;;;;;5016029;28;20176;-88
2023/07/03 02:09:05;;;;;;;16.47;10.90;;;14.60;75.50;;;;;;4998324;28;20266;-86
2023/07/03 02:11:30;;;;;;;14.43;10.80;;;14.60;75.40;;;;;;4998335;28;20181;-88
2023/07/03 02:13:56;;;;;;;17.83;11.63;;;14.60;75.90;;;;;;5015722;28;20289;-88
2023/07/03 02:16:21;;;;;;;21.60;11.27;;;14.60;75.70;;;;;;4998365;28;20201;-88
2023/07/03 02:18:47;;;;;;;14.63;11.13;;;14.50;76.10;;;;;;4998847;28;20173;-88
2023/07/03 02:21:13;;;;;;;17.27;11.67;;;14.40;76.40;;;;;;5015997;28;20540;-88
2023/07/03 02:23:40;;;;;;;15.47;11.30;;;14.40;76.70;;;;;;4998431;28;20661;-88
2023/07/03 02:26:05;;;;;;;17.47;11.57;;;14.40;76.70;;;;;;5015489;28;20169;-88
2023/07/03 02:28:31;;;;;;;21.50;11.20;;;14.40;76.60;;;;;;4998271;28;20204;-87
2023/07/03 02:30:56;;;;;;;22.53;12.40;;;14.40;76.80;;;;;;5015881;28;20205;-88
2023/07/03 02:33:22;;;;;;;13.83;10.63;;;14.40;76.80;;;;;;4998335;28;20664;-88
2023/07/03 02:35:47;;;;;;;21.87;11.27;;;14.40;76.80;;;;;;5014612;28;20188;-87
2023/07/03 02:38:15;;;;;;;20.47;11.30;;;14.50;76.60;;;;;;4996931;28;20177;-86
2023/07/03 02:40:41;;;;;;;21.07;11.00;;;14.50;76.60;;;;;;4996948;28;20645;-87
2023/07/03 02:43:07;;;;;;;16.30;11.07;;;14.60;76.80;;;;;;5014457;28;20684;-88
2023/07/03 02:45:41;;;;;;;18.17;11.23;;;14.60;77.10;;;;;;5014451;28;20256;-87
2023/07/03 02:48:08;;;;;;;16.17;11.33;;;14.60;76.90;;;;;;5014510;28;20171;-88
2023/07/03 02:50:34;;;;;;;19.17;11.67;;;14.50;76.80;;;;;;5014753;28;20200;-88
2023/07/03 02:53:00;;;;;;;17.90;10.70;;;14.50;76.70;;;;;;4996976;28;20719;-88
2023/07/03 02:55:26;;;;;;;15.57;10.47;;;14.50;77.20;;;;;;4996613;28;20188;-87
2023/07/03 02:57:51;;;;;;;16.20;10.90;;;14.30;77.70;;;;;;5014368;28;20228;-88
2023/07/03 03:00:17;;;;;;;16.33;10.83;;;14.30;77.70;;;;;;5014399;28;20174;-87
2023/07/03 03:02:44;;;;;;;19.87;10.90;;;14.40;77.70;;;;;;4996637;28;20284;-87
2023/07/03 03:05:11;;;;;;;17.17;11.53;;;14.40;77.60;;;;;;5014025;28;20165;-87
2023/07/03 03:07:36;;;;;;;16.80;11.03;;;14.40;77.40;;;;;;4996512;28;20189;-87
2023/07/03 03:10:03;;;;;;;20.03;11.63;;;14.50;77.40;;;;;;4996431;28;20558;-87
2023/07/03 03:12:28;;;;;;;15.00;10.93;;;14.50;77.00;;;;;;4997047;28;20186;-88
2023/07/03 03:14:54;;;;;;;16.83;10.83;;;14.60;77.30;;;;;;5014347;28;20180;-88
2023/07/03 03:17:19;;;;;;;20.07;11.37;;;14.70;77.30;;;;;;4996590;28;20208;-88
2023/07/03 03:19:45;;;;;;;19.20;10.70;;;14.70;77.50;;;;;;4996326;28;20177;-86
2023/07/03 03:22:11;;;;;;;23.83;11.53;;;14.60;77.70;;;;;;4996078;28;20173;-86
2023/07/03 03:24:36;;;;;;;21.33;11.80;;;14.70;77.30;;;;;;4996639;28;20569;-88
2023/07/03 03:27:06;;;;;;;18.67;11.23;;;14.70;77.40;;;;;;4996510;28;20177;-88
2023/07/03 03:29:32;;;;;;;21.97;11.17;;;14.80;77.30;;;;;;4996326;28;20184;-88
2023/07/03 03:31:58;;;;;;;25.10;12.03;;;14.80;78.00;;;;;;4996461;28;20182;-88
2023/07/03 03:34:23;;;;;;;18.30;10.77;;;14.80;77.50;;;;;;4996656;28;20208;-87
2023/07/03 03:36:49;;;;;;;21.67;11.63;;;14.80;77.80;;;;;;4996494;28;20224;-88
2023/07/03 03:39:14;;;;;;;22.60;11.57;;;14.80;77.30;;;;;;4996810;28;20181;-88
2023/07/03 03:41:40;;;;;;;27.80;11.03;;;14.90;77.10;;;;;;4996482;28;20661;-88
2023/07/03 03:44:05;;;;;;;23.50;11.10;;;14.90;77.40;;;;;;5013868;28;20700;-88
2023/07/03 03:46:31;;;;;;;22.40;11.15;;;15.00;78.00;;;;;;4995946;28;20181;-87
2023/07/03 03:48:57;;;;;;;22.30;10.53;;;15.00;77.40;;;;;;4995340;28;20193;-87
2023/07/03 03:51:22;;;;;;;21.70;10.37;;;15.00;77.30;;;;;;4995948;28;20181;-87
2023/07/03 03:53:48;;;;;;;23.00;11.20;;;15.10;76.60;;;;;;4995862;28;20216;-84
2023/07/03 03:56:14;;;;;;;18.33;10.40;;;15.10;75.90;;;;;;4995721;28;20300;-87
2023/07/03 03:58:40;;;;;;;17.48;9.88;;;15.10;76.70;;;;;;4995841;28;20177;-87
2023/07/03 04:01:05;;;;;;;14.57;9.47;;;15.10;77.20;;;;;;4996100;28;20239;-87
2023/07/03 04:03:31;;;;;;;25.13;10.75;;;15.10;77.90;;;;;;5013327;28;20272;-87
2023/07/03 04:05:57;;;;;;;22.33;10.85;;;15.00;78.30;;;;;;4995753;28;20181;-87
2023/07/03 04:08:22;;;;;;;17.27;10.93;;;15.10;78.70;;;;;;5013374;28;20182;-87
2023/07/03 04:10:48;;;;;;;19.40;11.48;;;15.00;78.30;;;;;;4995753;28;20267;-87
2023/07/03 04:13:13;;;;;;;20.73;10.70;;;15.10;78.90;;;;;;5013172;28;20193;-87
2023/07/03 04:16:00;;;;;;;20.52;11.15;;;15.10;78.20;;;;;;4995636;28;20178;-87
2023/07/03 04:18:26;;;;;;;21.25;10.60;;;15.10;77.80;;;;;;4995845;28;20181;-87
2023/07/03 04:20:52;;;;;;;23.77;12.00;;;15.10;77.90;;;;;;5013208;28;20173;-86
2023/07/03 04:23:18;;;;;;;23.17;11.97;;;15.10;77.50;;;;;;4995795;28;20193;-88
2023/07/03 04:25:44;;;;;;;16.95;10.23;;;15.00;77.70;;;;;;5013585;28;20176;-88
2023/07/03 04:28:11;;;;;;;21.07;10.53;;;14.90;77.80;;;;;;5013294;28;20577;-88
2023/07/03 04:30:37;;;;;;;20.30;10.00;;;15.00;77.60;;;;;;4996333;28;20208;-87
2023/07/03 04:33:03;;;;;;;19.63;10.63;;;15.00;77.80;;;;;;4996064;28;20627;-88
2023/07/03 04:35:28;;;;;;;21.57;10.03;;;15.00;78.00;;;;;;5013567;28;20637;-87
2023/07/03 04:37:54;;;;;;;20.93;10.20;;;15.10;77.80;;;;;;5013377;28;20193;-87
2023/07/03 04:40:20;;;;;;;19.53;10.17;;;15.20;78.00;;;;;;5012936;28;20645;-87
2023/07/03 04:42:45;;;;;;;24.23;11.30;;;15.10;77.80;;;;;;4996453;28;20193;-86
2023/07/03 04:45:13;;;;;;;19.15;10.07;;;15.20;78.30;;;;;;5014061;28;20694;-88
2023/07/03 04:47:39;;;;;;;22.63;10.57;;;15.20;77.90;;;;;;4996373;28;20593;-88
2023/07/03 04:50:10;;;;;;;22.53;10.90;;;15.20;78.20;;;;;;4995422;28;20312;-87
2023/07/03 04:52:39;;;;;;;21.13;10.43;;;15.20;78.10;;;;;;5012744;28;20169;-88
2023/07/03 04:55:07;;;;;;;20.17;9.63;;;15.20;78.60;;;;;;4996348;28;20200;-87
2023/07/03 04:57:33;;;;;;;20.07;9.47;;;15.20;77.60;;;;;;4995367;28;20217;-87
2023/07/03 05:00:00;;;;;;;21.80;10.20;;;15.30;78.60;;;;;;4997114;28;20177;-88
2023/07/03 05:02:26;;;;;;;18.80;9.57;;;15.30;77.80;;;;;;4999083;28;20177;-87
2023/07/03 05:04:51;;;;;;;15.02;9.40;;;15.40;77.60;;;;;;4999230;28;20536;-87
2023/07/03 05:07:19;;;;;;;23.45;10.65;;;15.40;78.50;;;;;;4999221;28;20641;-86
2023/07/03 05:09:45;;;;;;;23.50;9.90;;;15.40;77.80;;;;;;4998810;28;20212;-87
2023/07/03 05:12:11;;;;;;;19.17;10.13;;;15.50;78.20;;;;;;4998841;28;20186;-87
2023/07/03 05:14:37;;;;;;;19.95;9.60;;;15.60;77.80;;;;;;4998742;28;20267;-87
2023/07/03 05:17:02;;;;;;;23.00;10.15;;;15.60;78.00;;;;;;4998696;28;20201;-87
2023/07/03 05:19:28;;;;;;;17.63;9.48;;;15.60;77.30;;;;;;4999056;28;20181;-87
2023/07/03 05:21:54;;;;;;;22.90;10.98;;;15.70;77.40;;;;;;4998607;28;20182;-87
2023/07/03 05:24:19;;;;;;;21.92;10.13;;;15.80;77.10;;;;;;4998523;28;20197;-87
2023/07/03 05:26:45;;;;;;;19.55;10.43;;;16.10;77.00;;;;;;5015983;28;20184;-86
2023/07/03 05:29:10;;;;;;;21.00;10.38;;;16.10;74.70;;;;;;4998624;28;20316;-85
2023/07/03 05:31:36;;;;;;;19.98;10.32;;;16.00;76.00;;;;;;5015866;28;20181;-87
2023/07/03 05:34:01;;;;;;;15.73;10.32;;;16.00;76.30;;;;;;4998366;28;20287;-88
2023/07/03 05:36:27;;;;;;;18.10;10.07;;;15.90;75.70;;;;;;4998283;28;20203;-87
2023/07/03 05:38:52;;;;;;;18.65;10.35;;;15.90;76.00;;;;;;4998106;28;20641;-87
2023/07/03 05:41:18;;;;;;;19.90;9.35;;;15.90;76.50;;;;;;4998234;28;20176;-87
2023/07/03 05:43:44;;;;;;;18.50;10.50;;;16.00;76.40;;;;;;4998169;28;20201;-87
2023/07/03 05:46:09;;;;;;;20.00;11.82;;;15.90;75.90;;;;;;5015708;28;20169;-88
2023/07/03 05:48:35;;;;;;;22.23;10.93;;;15.90;75.80;;;;;;5015606;28;20189;-87
2023/07/03 05:51:00;;;;;;;18.92;11.75;;;15.90;74.60;;;;;;4997989;28;20174;-87
2023/07/03 05:53:26;;;;;;;23.35;11.85;;;16.00;74.50;;;;;;4997759;28;20335;-87
2023/07/03 05:55:56;;;;;;;18.15;10.73;;;16.20;74.80;;;;;;4997860;28;20641;-87
2023/07/03 05:58:22;;;;;;;21.05;11.43;;;16.20;74.50;;;;;;4998182;28;20185;-87
2023/07/03 06:00:48;;;;;;;20.67;11.10;;;16.20;75.10;;;;;;5015271;28;20201;-87
2023/07/03 06:03:15;;;;;;;33.97;11.80;;;16.20;75.00;;;;;;5015151;28;20239;-87
2023/07/03 06:05:42;;;;;;;17.45;11.23;;;16.10;75.40;;;;;;5015358;28;20256;-85
2023/07/03 06:08:07;;;;;;;16.30;11.95;;;16.10;74.70;;;;;;4997671;28;20219;-85
2023/07/03 06:10:33;;;;;;;24.58;11.65;;;16.10;73.70;;;;;;4997612;28;20181;-85
2023/07/03 06:12:58;;;;;;;18.02;10.82;;;16.20;74.80;;;;;;5014541;28;20189;-87
2023/07/03 06:15:24;;;;;;;19.90;11.57;;;16.20;74.20;;;;;;5015212;28;20178;-87
2023/07/03 06:17:50;;;;;;;19.25;11.25;;;16.20;73.80;;;;;;4997588;28;20205;-88
2023/07/03 06:20:15;;;;;;;25.77;11.70;;;16.20;73.80;;;;;;4997414;28;20174;-89
2023/07/03 06:22:42;;;;;;;15.55;11.05;;;16.20;75.00;;;;;;4997222;28;20264;-86
2023/07/03 06:25:08;;;;;;;24.17;11.02;;;16.20;73.90;;;;;;5015072;28;20182;-87
2023/07/03 06:27:34;;;;;;;18.48;10.35;;;16.20;75.00;;;;;;5014826;28;20256;-87
2023/07/03 06:29:59;;;;;;;20.92;10.40;;;16.20;75.40;;;;;;5014740;28;20729;-86
2023/07/03 06:32:25;;;;;;;18.73;11.13;;;16.20;74.40;;;;;;4997192;28;20184;-86
2023/07/03 06:34:50;;;;;;;17.02;10.38;;;16.20;74.30;;;;;;5014689;28;20173;-86
2023/07/03 06:37:16;;;;;;;19.63;11.10;;;16.20;74.40;;;;;;5014779;28;20201;-87
2023/07/03 06:39:41;;;;;;;14.02;9.85;;;16.10;73.60;;;;;;5014558;28;20169;-87
2023/07/03 06:42:09;;;;;;;16.98;10.77;;;16.20;74.30;;;;;;4996979;28;20173;-86
2023/07/03 06:44:36;;;;;;;21.90;10.65;;;16.20;74.10;;;;;;5014386;28;20185;-86
2023/07/03 06:47:01;;;;;;;20.35;10.75;;;16.40;74.80;;;;;;4997018;28;20276;-87
2023/07/03 06:49:29;;;;;;;16.70;9.90;;;16.40;74.00;;;;;;4996933;28;20624;-86
2023/07/03 06:51:56;;;;;;;18.20;10.68;;;16.40;74.10;;;;;;4996833;28;20653;-85
2023/07/03 06:54:22;;;;;;;20.20;10.98;;;16.50;73.60;;;;;;5014210;28;20267;-86
2023/07/03 06:56:48;;;;;;;19.42;10.95;;;16.70;71.90;;;;;;5014656;28;20192;-86
2023/07/03 06:59:13;;;;;;;15.45;11.18;;;16.80;69.90;;;;;;4996811;28;20184;-86
2023/07/03 07:01:40;;;;;;;16.27;11.68;;;17.00;69.70;;;;;;5014662;28;20181;-86
2023/07/03 07:04:06;;;;;;;19.45;11.60;;;17.20;71.20;;;;;;4996725;28;20201;-86
2023/07/03 07:06:32;;;;;;;29.55;12.05;;;17.00;70.90;;;;;;4996564;28;20181;-86
2023/07/03 07:08:58;;;;;;;23.17;13.13;;;17.00;71.40;;;;;;4996587;28;20188;-87
2023/07/03 07:11:26;;;;;;;18.08;12.63;;;17.00;70.90;;;;;;4996721;28;20185;-87
2023/07/03 07:13:54;;;;;;;15.07;13.10;;;17.20;69.30;;;;;;4996397;28;20320;-86
2023/07/03 07:16:26;;;;;;;17.50;12.05;;;17.00;68.90;;;;;;5014174;28;20194;-86
2023/07/03 07:18:56;;;;;;;12.50;11.30;;;16.90;69.00;;;;;;5013985;28;20158;-86
2023/07/03 07:21:23;;;;;;;16.98;13.25;;;17.00;69.80;;;;;;5014231;28;20644;-86
2023/07/03 07:23:54;;;;;;;20.10;12.80;;;17.10;70.00;;;;;;4995567;28;20200;-85
2023/07/03 07:26:21;;;;;;;19.10;13.13;;;17.30;70.20;;;;;;5014423;28;20592;-85
2023/07/03 07:28:47;;;;;;;16.67;11.70;;;17.40;69.00;;;;;;5013840;28;20599;-85
2023/07/03 07:31:24;;;;;;;16.80;12.50;;;17.10;68.50;;;;;;5013758;28;20211;-86
2023/07/03 07:33:50;;;;;;;17.88;12.73;;;17.10;69.20;;;;;;4996160;28;20687;-86
2023/07/03 07:36:19;;;;;;;18.48;10.90;;;16.90;70.10;;;;;;4996007;28;20196;-86
2023/07/03 07:38:45;;;;;;;18.30;12.43;;;17.00;71.60;;;;;;4996382;28;20177;-86
2023/07/03 07:41:11;;;;;;;22.83;12.98;;;17.00;70.90;;;;;;5013881;28;20543;-86
2023/07/03 07:43:37;;;;;;;19.75;12.73;;;17.10;71.10;;;;;;4995936;28;20204;-85
2023/07/03 07:46:03;;;;;;;17.13;12.35;;;17.10;69.60;;;;;;4995886;28;20592;-88
2023/07/03 07:48:28;;;;;;;19.77;13.20;;;17.10;70.50;;;;;;4995797;28;20177;-87
2023/07/03 07:50:54;;;;;;;24.10;12.75;;;17.00;70.20;;;;;;4995943;28;20664;-87
2023/07/03 07:53:19;;;;;;;25.45;11.82;;;17.30;71.60;;;;;;4995769;28;20209;-88
2023/07/03 07:55:45;;;;;;;17.02;14.13;;;17.40;71.30;;;;;;5013731;28;20544;-88
2023/07/03 07:58:11;;;;;;;19.92;12.50;;;17.20;67.30;;;;;;4995923;28;20197;-88
2023/07/03 08:00:39;;;;;;;18.40;13.57;;;17.40;68.40;;;;;;4996213;28;20178;-87
2023/07/03 08:03:05;;;;;;;15.40;11.90;;;17.60;67.10;;;;;;4995875;28;20264;-87
2023/07/03 08:05:31;;;;;;;14.32;12.88;;;17.90;68.40;;;;;;4996238;28;20648;-85
2023/07/03 08:07:56;;;;;;;16.80;13.48;;;17.90;66.50;;;;;;4995983;28;20181;-88
2023/07/03 08:10:22;;;;;;;18.65;14.20;;;17.90;67.20;;;;;;5013626;28;20201;-87
2023/07/03 08:12:47;;;;;;;14.90;13.35;;;17.60;64.70;;;;;;4995664;28;20706;-89
2023/07/03 08:15:13;;;;;;;14.48;12.93;;;17.60;66.50;;;;;;5013240;28;20174;-88
2023/07/03 08:17:39;;;;;;;22.48;14.48;;;17.80;65.80;;;;;;4996261;28;20201;-89
2023/07/03 08:20:11;;;;;;;15.18;13.65;;;17.90;66.20;;;;;;4995670;28;20173;-89
2023/07/03 08:22:38;;;;;;;18.20;14.63;;;17.80;65.10;;;;;;4996409;28;20169;-89
2023/07/03 08:25:04;;;;;;;14.80;13.23;;;18.00;65.80;;;;;;4995583;28;20177;-91
2023/07/03 08:27:29;;;;;;;24.27;14.95;;;18.20;64.30;;;;;;4995595;28;20185;-89
2023/07/03 08:29:56;;;;;;;18.58;14.93;;;17.90;64.60;;;;;;4995743;28;20181;-89
2023/07/03 08:32:22;;;;;;;17.83;13.20;;;17.70;66.70;;;;;;4995833;28;20192;-90
2023/07/03 08:34:48;;;;;;;16.80;11.10;;;17.10;69.90;;;;;;4996933;28;20185;-90
2023/07/03 08:37:13;;;;;;;13.18;10.40;;;16.30;74.00;;;;;;5017030;28;20204;-90
2023/07/03 08:39:39;;;;;;;15.05;10.57;;;16.20;74.50;;;;;;5016831;28;20166;-87
2023/07/03 08:42:32;;;;;;;14.63;9.70;;;16.80;74.50;;;;;;5017075;28;20169;-87
2023/07/03 08:44:59;;;;;;;18.10;12.70;;;17.30;74.20;;;;;;4999265;28;20224;-88
2023/07/03 08:47:29;;;;;;;14.10;12.70;;;17.70;71.90;;;;;;4999053;28;20201;-88
2023/07/03 08:49:57;;;;;;;25.73;13.00;;;17.90;68.70;;;;;;5016668;28;20169;-87
2023/07/03 08:52:31;;;;;;;16.10;13.75;;;18.20;69.60;;;;;;4998818;28;20174;-89
2023/07/03 08:54:57;;;;;;;20.90;12.80;;;18.40;67.90;;;;;;5016577;28;20166;-89
2023/07/03 08:57:24;;;;;;;18.65;15.73;;;18.70;68.40;;;;;;4999461;28;20224;-88
2023/07/03 08:59:52;;;;;;;19.23;15.27;;;18.70;65.50;;;;;;4998847;28;20180;-89
2023/07/03 09:02:37;;;;;;;20.83;13.43;;;18.30;64.90;;;;;;4999043;28;20205;-88
2023/07/03 09:05:18;;;;;;;17.00;15.30;;;18.30;66.50;;;;;;4999447;28;20264;-89
2023/07/03 09:07:55;;;;;;;16.23;14.20;;;18.00;65.20;;;;;;5016752;28;20170;-89
2023/07/03 09:10:26;;;;;;;14.60;13.30;;;17.80;67.80;;;;;;5016650;28;20161;-88
2023/07/03 09:13:08;;;;;;;14.75;13.32;;;17.30;68.90;;;;;;4998753;28;20209;-89
2023/07/03 09:15:45;;;;;;;16.17;13.13;;;17.10;70.00;;;;;;4998741;28;20170;-89
2023/07/03 09:18:16;;;;;;;14.90;13.32;;;17.20;71.70;;;;;;4998538;28;20185;-87
2023/07/03 09:20:43;;;;;;;14.20;12.95;;;17.20;71.00;;;;;;5016133;28;20165;-87
2023/07/03 09:23:40;;;;;;;16.95;13.25;;;17.10;69.60;;;;;;4998485;28;20284;-88
2023/07/03 09:26:22;;;;;;;13.45;12.15;;;17.20;69.40;;;;;;4998465;28;20166;-90
2023/07/03 09:28:49;;;;;;;15.27;12.23;;;17.40;69.90;;;;;;4998420;28;20196;-88
2023/07/03 09:31:15;;;;;;;12.75;11.65;;;17.70;70.70;;;;;;5015912;28;20177;-90
2023/07/03 09:33:41;;;;;;;15.48;12.88;;;17.30;71.00;;;;;;5015719;28;20272;-88
2023/07/03 09:36:41;;;;;;;17.30;12.70;;;17.20;70.70;;;;;;4998519;28;20277;-89
2023/07/03 09:39:13;;;;;;;15.15;12.25;;;17.50;71.50;;;;;;4956833;28;20190;-89
2023/07/03 09:41:40;;;;;;;14.38;11.85;;;17.40;71.10;;;;;;4998755;28;20169;-88
2023/07/03 09:44:17;;;;;;;12.90;11.65;;;17.20;72.10;;;;;;4998464;28;20661;-87
2023/07/03 09:46:44;;;;;;;12.45;11.20;;;17.00;72.70;;;;;;4997378;28;20263;-88
2023/07/03 09:49:28;;;;;;;11.43;10.00;;;16.50;75.10;;;;;;4998219;28;20182;-88
2023/07/03 09:51:56;;;;;;;14.15;10.40;;;16.10;76.30;;;;;;5021077;28;20629;-90
2023/07/03 09:54:28;;;;;;;11.98;8.65;;;15.80;78.40;;;;;;4997890;28;20228;-90
2023/07/03 09:56:54;;;;;;;10.65;8.48;;;15.90;78.30;;;;;;4998691;28;20300;-90
2023/07/03 09:59:22;;;;;;;9.68;8.68;;;16.00;78.40;;;;;;5017265;28;20176;-92
2023/07/03 10:01:53;;;;;;;12.65;8.43;;;16.10;76.60;;;;;;4998973;28;20174;-91
2023/07/03 10:04:19;;;;;;;11.48;6.60;;;16.00;78.30;;;;;;4998406;28;20280;-90
2023/07/03 10:07:13;;;;;;;12.40;6.43;;;15.60;79.60;;;;;;5015619;28;20212;-91
2023/07/03 10:09:41;;;;;;;12.98;5.95;;;15.20;83.10;;;;;;5015283;28;20656;-92
2023/07/03 10:12:19;;;;;;;7.67;5.73;;;14.70;83.30;;;;;;5003795;28;20185;-89
2023/07/03 10:15:05;;;;;;;8.93;5.40;;;14.30;83.30;;;;;;4999451;28;20204;-88
2023/07/03 10:17:36;;;;;;;5.30;4.30;;;14.30;84.30;;;;;;4998257;28;20280;-88
2023/07/03 10:20:09;;;;;;;5.03;4.63;;;14.00;83.80;;;;;;4998013;28;20166;-88
2023/07/03 10:22:37;;;;;;;8.30;4.90;;;14.30;84.80;;;;;;4997577;28;20176;-86
2023/07/03 10:25:07;;;;;;;6.93;4.57;;;14.20;84.00;;;;;;4997748;28;20204;-89
2023/07/03 10:27:35;;;;;;;4.90;4.50;;;14.30;83.80;;;;;;4997856;28;20185;-88
2023/07/03 10:30:04;;;;;;;6.00;5.50;;;14.10;83.50;;;;;;4997279;28;20192;-89
2023/07/03 10:32:35;;;;;;;9.83;5.50;;;14.30;82.90;;;;;;4997052;28;20185;-89
2023/07/03 10:35:22;;;;;;;5.17;4.60;;;14.50;82.80;;;;;;4997270;28;20178;-87
2023/07/03 10:37:59;;;;;;;6.17;5.57;;;14.70;81.70;;;;;;5015440;28;20220;-86
2023/07/03 10:40:55;;;;;;;7.73;4.90;;;14.90;82.80;;;;;;5014894;28;20150;-87
2023/07/03 10:43:21;;;;;;;8.17;4.50;;;15.00;82.20;;;;;;4990517;28;20201;-86
2023/07/03 10:45:47;;;;;;;5.27;4.10;;;15.20;83.20;;;;;;5014504;28;20180;-87
2023/07/03 10:48:16;;;;;;;5.90;5.17;;;15.20;83.10;;;;;;4996952;28;20272;-86
2023/07/03 10:50:55;;;;;;;6.33;4.77;;;15.20;82.50;;;;;;4996875;28;20185;-87
2023/07/03 10:53:46;;;;;;;7.05;5.30;;;15.30;82.50;;;;;;5014305;28;20620;-87
2023/07/03 10:56:36;;;;;;;9.03;5.60;;;15.70;82.30;;;;;;4997293;28;20257;-88
2023/07/03 10:59:35;;;;;;;7.95;6.60;;;15.90;80.80;;;;;;4997009;28;20169;-86
2023/07/03 11:02:06;;;;;;;11.60;5.95;;;16.30;78.00;;;;;;4999021;28;20192;-86
2023/07/03 11:04:44;;;;;;;8.75;6.70;;;16.80;78.50;;;;;;4996648;28;20196;-87
2023/07/03 11:07:32;;;;;;;7.80;6.20;;;17.20;77.30;;;;;;4996580;28;20162;-86
2023/07/03 11:10:30;;;;;;;11.25;6.22;;;17.40;76.70;;;;;;4997223;28;20162;-88
2023/07/03 11:13:14;;;;;;;10.07;7.57;;;17.60;76.40;;;;;;4996504;28;20228;-86
2023/07/03 11:15:54;;;;;;;9.65;7.00;;;17.40;76.20;;;;;;5014079;28;20185;-87
2023/07/03 11:18:30;;;;;;;9.07;8.15;;;17.50;76.60;;;;;;5013909;28;20196;-87
2023/07/03 11:21:47;;;;;;;14.52;8.55;;;17.40;74.60;;;;;;5014382;28;20633;-86
2023/07/03 11:24:18;;;;;;;13.90;9.48;;;17.40;73.60;;;;;;5008328;28;20267;-86
2023/07/03 11:27:03;;;;;;;13.98;9.13;;;17.20;72.80;;;;;;4996456;28;20213;-86
2023/07/03 11:29:29;;;;;;;10.43;8.90;;;17.20;74.80;;;;;;5014045;28;20157;-85
2023/07/03 11:31:56;;;;;;;10.63;9.52;;;16.90;74.30;;;;;;5013797;28;20177;-87
2023/07/03 11:34:22;;;;;;;11.13;8.25;;;16.70;75.20;;;;;;4996056;28;20197;-85
2023/07/03 11:36:54;;;;;;;9.85;8.02;;;16.50;76.90;;;;;;5013821;28;20651;-85
2023/07/03 11:39:24;;;;;;;8.32;7.25;;;15.10;76.90;;;;;;4995994;28;20581;-88
2023/07/03 11:42:01;;;;;;;8.80;7.90;;;13.90;81.20;;;;;;5013589;28;20526;-86
2023/07/03 11:44:27;;;;;;;7.50;6.90;;;13.60;81.90;;;;;;4996289;28;20239;-88
2023/07/03 11:46:54;;;;;;;7.53;7.03;;;13.30;82.40;;;;;;4996366;28;20201;-86
2023/07/03 11:49:25;;;;;;;7.30;6.67;;;13.30;83.40;;;;;;5013727;28;20197;-87
2023/07/03 11:51:56;;;;;;;7.10;6.40;;;13.50;84.10;;;;;;4996085;28;20180;-86
2023/07/03 11:54:24;;;;;;;6.50;6.00;;;13.70;83.90;;;;;;5013399;28;20205;-85
2023/07/03 11:57:27;;;;;;;5.93;5.43;;;13.80;84.00;;;;;;5013445;28;20189;-84
2023/07/03 11:59:53;;;;;;;8.37;5.47;;;14.00;84.40;;;;;;5013629;28;20235;-85
2023/07/03 12:02:18;;;;;;;9.70;5.73;;;13.80;84.00;;;;;;4996139;28;20212;-87
2023/07/03 12:04:46;;;;;;;6.47;4.90;;;13.80;84.30;;;;;;4996133;28;20247;-85
2023/07/03 12:07:19;;;;;;;10.87;7.90;;;13.80;84.30;;;;;;4996808;28;20209;-85
2023/07/03 12:09:49;;;;;;;5.53;4.57;;;13.80;84.80;;;;;;4998293;28;20185;-85
2023/07/03 12:12:26;;;;;;;5.37;4.53;;;13.80;85.20;;;;;;5000180;28;20185;-87
2023/07/03 12:15:01;;;;;;;6.63;5.30;;;13.90;85.30;;;;;;5017699;28;20523;-86
2023/07/03 12:17:28;;;;;;;7.23;4.40;;;13.90;84.50;;;;;;5017531;28;20198;-85
2023/07/03 12:20:11;;;;;;;12.50;5.10;;;13.90;84.60;;;;;;5002826;28;20223;-92
2023/07/03 12:22:42;;;;;;;10.40;5.10;;;14.10;84.50;;;;;;5020136;28;20724;-92
2023/07/03 12:25:17;;;;;;;6.10;4.63;;;14.30;84.30;;;;;;5022026;28;20160;-91
2023/07/03 12:27:43;;;;;;;6.73;4.30;;;14.40;84.20;;;;;;5004402;28;20176;-91
2023/07/03 12:30:10;;;;;;;7.30;4.70;;;14.50;84.50;;;;;;5009407;28;20178;-92
2023/07/03 12:32:36;;;;;;;7.50;4.87;;;14.40;84.20;;;;;;5023930;28;20260;-88
2023/07/03 12:35:12;;;;;;;5.40;4.10;;;14.40;84.30;;;;;;5018681;28;20208;-88
2023/07/03 12:37:50;;;;;;;8.53;4.17;;;14.30;86.00;;;;;;5017894;28;20208;-87
2023/07/03 12:40:18;;;;;;;10.13;4.63;;;14.20;86.30;;;;;;5000939;28;20177;-87